createdAt,value
2014-07-13T00:00:16.330Z,2
2014-07-13T00:00:34.158Z,2
2014-07-13T00:00:52.455Z,2
2014-07-13T00:01:10.049Z,2
2014-07-13T00:01:27.692Z,2
2014-07-13T00:01:45.942Z,2
2014-07-13T00:02:04.176Z,2
2014-07-13T00:02:22.412Z,2
2014-07-13T00:02:40.053Z,2
2014-07-13T00:02:57.725Z,2
2014-07-13T00:03:15.287Z,2
2014-07-13T00:03:32.899Z,2
2014-07-13T00:03:51.133Z,2
2014-07-13T00:04:08.102Z,2
2014-07-13T00:04:26.462Z,2
2014-07-13T00:04:44.072Z,2
2014-07-13T00:05:01.665Z,2
2014-07-13T00:05:18.634Z,2
2014-07-13T00:05:36.997Z,2
2014-07-13T00:05:54.606Z,2
2014-07-13T00:06:12.247Z,2
2014-07-13T00:06:30.529Z,1
2014-07-13T00:06:48.748Z,1
2014-07-13T00:07:05.294Z,2
2014-07-13T00:07:22.873Z,2
2014-07-13T00:07:41.110Z,2
2014-07-13T00:07:58.079Z,2
2014-07-13T00:08:15.688Z,2
2014-07-13T00:08:33.970Z,2
2014-07-13T00:08:51.611Z,1
2014-07-13T00:09:09.252Z,2
2014-07-13T00:09:26.863Z,2
2014-07-13T00:09:45.097Z,2
2014-07-13T00:10:03.629Z,2
2014-07-13T00:10:21.160Z,2
2014-07-13T00:10:38.131Z,2
2014-07-13T00:10:55.115Z,2
2014-07-13T00:11:12.709Z,2
2014-07-13T00:11:30.943Z,2
2014-07-13T00:11:49.164Z,2
2014-07-13T00:12:06.773Z,2
2014-07-13T00:12:24.367Z,2
2014-07-13T00:12:41.338Z,2
2014-07-13T00:12:58.931Z,2
2014-07-13T00:13:16.541Z,2
2014-07-13T00:13:34.760Z,2
2014-07-13T00:13:52.997Z,2
2014-07-13T00:14:11.216Z,2
2014-07-13T00:14:29.450Z,3
2014-07-13T00:14:47.139Z,2
2014-07-13T00:15:05.373Z,2
2014-07-13T00:15:22.967Z,2
2014-07-13T00:15:41.264Z,2
2014-07-13T00:15:59.626Z,2
2014-07-13T00:16:17.907Z,2
2014-07-13T00:16:35.548Z,2
2014-07-13T00:16:53.799Z,2
2014-07-13T00:17:10.768Z,2
2014-07-13T00:17:29.002Z,1
2014-07-13T00:17:45.346Z,2
2014-07-13T00:18:03.583Z,2
2014-07-13T00:18:21.177Z,2
2014-07-13T00:18:38.786Z,2
2014-07-13T00:18:55.755Z,2
2014-07-13T00:19:13.991Z,2
2014-07-13T00:19:32.210Z,2
2014-07-13T00:19:50.444Z,2
2014-07-13T00:20:07.446Z,2
2014-07-13T00:20:25.056Z,2
2014-07-13T00:20:43.353Z,2
2014-07-13T00:21:01.603Z,2
2014-07-13T00:21:19.229Z,2
2014-07-13T00:21:37.510Z,2
2014-07-13T00:21:54.479Z,2
2014-07-13T00:22:12.121Z,2
2014-07-13T00:22:29.778Z,2
2014-07-13T00:22:46.121Z,2
2014-07-13T00:23:03.715Z,2
2014-07-13T00:23:21.952Z,2
2014-07-13T00:23:40.187Z,2
2014-07-13T00:23:57.796Z,2
2014-07-13T00:24:16.033Z,2
2014-07-13T00:24:34.267Z,2
2014-07-13T00:24:51.892Z,2
2014-07-13T00:25:09.548Z,2
2014-07-13T00:25:27.144Z,2
2014-07-13T00:25:45.363Z,2
2014-07-13T00:26:03.050Z,2
2014-07-13T00:26:19.988Z,2
2014-07-13T00:26:38.224Z,2
2014-07-13T00:26:56.474Z,2
2014-07-13T00:27:14.771Z,2
2014-07-13T00:27:32.382Z,2
2014-07-13T00:27:49.992Z,2
2014-07-13T00:28:07.132Z,2
2014-07-13T00:28:24.101Z,2
2014-07-13T00:28:41.712Z,2
2014-07-13T00:28:59.947Z,2
2014-07-13T00:29:18.166Z,2
2014-07-13T00:29:36.402Z,1
2014-07-13T00:29:54.636Z,2
2014-07-13T00:30:11.043Z,2
2014-07-13T00:30:29.261Z,2
2014-07-13T00:30:47.514Z,2
2014-07-13T00:31:05.108Z,2
2014-07-13T00:31:23.342Z,2
2014-07-13T00:31:41.030Z,2
2014-07-13T00:31:59.203Z,2
2014-07-13T00:32:16.859Z,2
2014-07-13T00:32:35.078Z,3
2014-07-13T00:32:53.314Z,2
2014-07-13T00:33:11.549Z,2
2014-07-13T00:33:29.142Z,2
2014-07-13T00:34:17.630Z,2
2014-07-13T00:34:35.411Z,2
2014-07-13T00:34:52.973Z,2
2014-07-13T00:35:10.677Z,2
2014-07-13T00:35:27.632Z,2
2014-07-13T00:35:45.991Z,2
2014-07-13T00:36:04.225Z,2
2014-07-13T00:36:21.194Z,2
2014-07-13T00:36:38.806Z,2
2014-07-13T00:36:56.540Z,2
2014-07-13T00:37:14.134Z,2
2014-07-13T00:37:31.745Z,2
2014-07-13T00:37:49.979Z,2
2014-07-13T00:38:07.573Z,2
2014-07-13T00:38:25.308Z,2
2014-07-13T00:38:42.919Z,2
2014-07-13T00:38:59.263Z,2
2014-07-13T00:39:17.497Z,2
2014-07-13T00:39:34.468Z,2
2014-07-13T00:39:52.702Z,2
2014-07-13T00:40:10.296Z,2
2014-07-13T00:40:27.280Z,2
2014-07-13T00:40:45.502Z,2
2014-07-13T00:41:03.111Z,2
2014-07-13T00:41:20.705Z,2
2014-07-13T00:41:38.940Z,3
2014-07-13T00:41:56.534Z,2
2014-07-13T00:42:14.753Z,2
2014-07-13T00:42:32.987Z,2
2014-07-13T00:42:51.224Z,2
2014-07-13T00:43:08.818Z,3
2014-07-13T00:43:25.943Z,2
2014-07-13T00:43:42.911Z,2
2014-07-13T00:44:01.133Z,2
2014-07-13T00:44:18.742Z,2
2014-07-13T00:44:35.711Z,2
2014-07-13T00:44:53.946Z,2
2014-07-13T00:45:11.556Z,3
2014-07-13T00:45:28.525Z,2
2014-07-13T00:45:45.493Z,2
2014-07-13T00:46:02.464Z,2
2014-07-13T00:46:20.074Z,3
2014-07-13T00:46:37.667Z,2
2014-07-13T00:46:55.902Z,2
2014-07-13T00:47:13.497Z,2
2014-07-13T00:47:31.732Z,2
2014-07-13T00:47:49.326Z,2
2014-07-13T00:48:06.296Z,2
2014-07-13T00:48:24.531Z,2
2014-07-13T00:48:42.124Z,2
2014-07-13T00:48:59.734Z,2
2014-07-13T00:49:16.705Z,2
2014-07-13T00:49:34.298Z,2
2014-07-13T00:49:52.517Z,2
2014-07-13T00:50:10.754Z,2
2014-07-13T00:50:28.348Z,2
2014-07-13T00:50:45.942Z,2
2014-07-13T00:51:02.926Z,2
2014-07-13T00:51:21.147Z,2
2014-07-13T00:51:38.741Z,2
2014-07-13T00:51:56.350Z,2
2014-07-13T00:52:13.946Z,2
2014-07-13T00:52:31.555Z,2
2014-07-13T00:52:49.149Z,2
2014-07-13T00:53:06.758Z,2
2014-07-13T00:53:24.354Z,2
2014-07-13T00:53:42.589Z,3
2014-07-13T00:54:00.182Z,2
2014-07-13T00:54:17.153Z,2
2014-07-13T00:54:34.122Z,2
2014-07-13T00:54:51.716Z,2
2014-07-13T00:55:09.325Z,2
2014-07-13T00:55:27.546Z,2
2014-07-13T00:55:45.780Z,2
2014-07-13T00:56:03.374Z,3
2014-07-13T00:56:21.609Z,2
2014-07-13T00:56:39.828Z,2
2014-07-13T00:56:57.422Z,2
2014-07-13T00:57:15.656Z,2
2014-07-13T00:57:33.392Z,2
2014-07-13T00:57:50.361Z,2
2014-07-13T00:58:07.971Z,2
2014-07-13T00:58:25.564Z,2
2014-07-13T00:58:43.802Z,2
2014-07-13T00:59:01.395Z,2
2014-07-13T00:59:18.989Z,2
2014-07-13T00:59:37.224Z,2
2014-07-13T00:59:54.193Z,2
2014-07-13T01:00:12.428Z,2
2014-07-13T01:00:29.396Z,2
2014-07-13T01:00:46.992Z,3
2014-07-13T01:01:05.227Z,2
2014-07-13T01:01:23.445Z,2
2014-07-13T01:01:41.055Z,2
2014-07-13T01:01:58.025Z,2
2014-07-13T01:02:15.619Z,2
2014-07-13T01:02:33.979Z,2
2014-07-13T01:02:51.590Z,2
2014-07-13T01:03:09.184Z,2
2014-07-13T01:03:26.777Z,2
2014-07-13T01:03:44.371Z,2
2014-07-13T01:04:01.359Z,2
2014-07-13T01:04:19.593Z,2
2014-07-13T01:04:37.312Z,2
2014-07-13T01:04:54.923Z,2
2014-07-13T01:05:13.142Z,2
2014-07-13T01:05:31.376Z,2
2014-07-13T01:05:48.972Z,1
2014-07-13T01:06:06.706Z,2
2014-07-13T01:06:24.316Z,2
2014-07-13T01:06:42.534Z,2
2014-07-13T01:07:00.771Z,2
2014-07-13T01:07:18.990Z,1
2014-07-13T01:07:36.599Z,2
2014-07-13T01:07:54.194Z,2
2014-07-13T01:08:11.787Z,2
2014-07-13T01:08:29.397Z,2
2014-07-13T01:08:47.616Z,2
2014-07-13T01:09:05.228Z,1
2014-07-13T01:09:23.447Z,2
2014-07-13T01:09:41.681Z,2
2014-07-13T01:09:59.901Z,3
2014-07-13T01:10:18.135Z,2
2014-07-13T01:10:35.729Z,2
2014-07-13T01:10:53.965Z,2
2014-07-13T01:11:11.700Z,2
2014-07-13T01:11:29.293Z,2
2014-07-13T01:11:46.903Z,2
2014-07-13T01:12:04.514Z,1
2014-07-13T01:12:22.733Z,2
2014-07-13T01:12:41.092Z,2
2014-07-13T01:12:59.330Z,2
2014-07-13T01:13:17.064Z,2
2014-07-13T01:13:34.658Z,2
2014-07-13T01:13:52.892Z,2
2014-07-13T01:14:11.128Z,2
2014-07-13T01:14:28.721Z,2
2014-07-13T01:14:46.331Z,2
2014-07-13T01:15:04.567Z,2
2014-07-13T01:15:22.786Z,2
2014-07-13T01:15:39.770Z,2
2014-07-13T01:15:57.364Z,2
2014-07-13T01:16:15.600Z,3
2014-07-13T01:16:33.819Z,2
2014-07-13T01:16:50.803Z,2
2014-07-13T01:17:07.774Z,2
2014-07-13T01:17:25.993Z,2
2014-07-13T01:17:42.977Z,2
2014-07-13T01:18:01.196Z,2
2014-07-13T01:18:18.807Z,2
2014-07-13T01:18:37.026Z,2
2014-07-13T01:18:53.995Z,2
2014-07-13T01:19:11.606Z,2
2014-07-13T01:19:29.825Z,2
2014-07-13T01:19:48.059Z,2
2014-07-13T01:20:05.028Z,2
2014-07-13T01:20:22.640Z,2
2014-07-13T01:20:40.858Z,2
2014-07-13T01:20:58.468Z,2
2014-07-13T01:21:16.688Z,2
2014-07-13T01:21:34.298Z,2
2014-07-13T01:21:52.517Z,2
2014-07-13T01:22:10.126Z,2
2014-07-13T01:22:27.722Z,2
2014-07-13T01:22:44.690Z,2
2014-07-13T01:23:02.300Z,2
2014-07-13T01:23:19.271Z,2
2014-07-13T01:23:37.489Z,2
2014-07-13T01:23:55.099Z,4
2014-07-13T01:24:13.333Z,6
2014-07-13T01:24:30.929Z,7
2014-07-13T01:24:48.538Z,8
2014-07-13T01:25:06.132Z,9
2014-07-13T01:25:24.368Z,9
2014-07-13T01:25:41.962Z,10
2014-07-13T01:26:00.196Z,11
2014-07-13T01:26:18.433Z,11
2014-07-13T01:26:36.027Z,11
2014-07-13T01:26:53.636Z,2
2014-07-13T01:27:11.230Z,2
2014-07-13T01:27:27.575Z,2
2014-07-13T01:27:45.185Z,2
2014-07-13T01:28:03.404Z,2
2014-07-13T01:28:21.638Z,2
2014-07-13T01:28:39.874Z,2
2014-07-13T01:28:57.468Z,2
2014-07-13T01:29:15.077Z,2
2014-07-13T01:29:33.298Z,2
2014-07-13T01:29:51.658Z,2
2014-07-13T01:30:09.892Z,2
2014-07-13T01:30:28.128Z,2
2014-07-13T01:30:45.722Z,2
2014-07-13T01:31:03.956Z,2
2014-07-13T01:31:22.191Z,2
2014-07-13T01:31:39.162Z,2
2014-07-13T01:31:57.380Z,2
2014-07-13T01:32:14.990Z,1
2014-07-13T01:32:33.242Z,2
2014-07-13T01:32:51.460Z,2
2014-07-13T01:33:09.679Z,2
2014-07-13T01:33:26.664Z,2
2014-07-13T01:33:44.884Z,2
2014-07-13T01:34:01.994Z,2
2014-07-13T01:34:20.228Z,2
2014-07-13T01:34:38.449Z,2
2014-07-13T01:34:56.683Z,2
2014-07-13T01:35:14.293Z,2
2014-07-13T01:35:31.886Z,2
2014-07-13T01:35:48.856Z,2
2014-07-13T01:36:07.090Z,2
2014-07-13T01:36:24.059Z,2
2014-07-13T01:36:41.671Z,2
2014-07-13T01:36:59.889Z,2
2014-07-13T01:37:17.499Z,2
2014-07-13T01:37:35.720Z,2
2014-07-13T01:37:53.955Z,2
2014-07-13T01:38:11.549Z,2
2014-07-13T01:38:29.158Z,2
2014-07-13T01:38:46.753Z,2
2014-07-13T01:39:04.362Z,2
2014-07-13T01:39:22.581Z,2
2014-07-13T01:39:40.192Z,2
2014-07-13T01:39:57.802Z,2
2014-07-13T01:40:14.895Z,2
2014-07-13T01:40:31.880Z,2
2014-07-13T01:40:50.100Z,2
2014-07-13T01:41:07.085Z,2
2014-07-13T01:41:25.304Z,2
2014-07-13T01:41:43.540Z,2
2014-07-13T01:42:01.134Z,2
2014-07-13T01:42:18.743Z,2
2014-07-13T01:42:36.979Z,2
2014-07-13T01:42:55.198Z,2
2014-07-13T01:43:13.433Z,2
2014-07-13T01:43:31.651Z,2
2014-07-13T01:43:49.263Z,2
2014-07-13T01:44:06.856Z,2
2014-07-13T01:44:24.450Z,2
2014-07-13T01:44:42.827Z,2
2014-07-13T01:45:01.046Z,2
2014-07-13T01:45:19.280Z,2
2014-07-13T01:45:36.876Z,2
2014-07-13T01:45:54.610Z,2
2014-07-13T01:46:11.595Z,2
2014-07-13T01:46:29.829Z,2
2014-07-13T01:46:48.065Z,2
2014-07-13T01:47:06.299Z,2
2014-07-13T01:47:23.893Z,2
2014-07-13T01:47:41.504Z,2
2014-07-13T01:47:59.098Z,2
2014-07-13T01:48:16.707Z,2
2014-07-13T01:48:34.929Z,2
2014-07-13T01:48:53.163Z,2
2014-07-13T01:49:11.398Z,2
2014-07-13T01:49:28.991Z,2
2014-07-13T01:49:46.603Z,2
2014-07-13T01:50:04.822Z,2
2014-07-13T01:50:21.165Z,2
2014-07-13T01:50:38.777Z,1
2014-07-13T01:50:56.995Z,2
2014-07-13T01:51:14.605Z,2
2014-07-13T01:51:32.825Z,2
2014-07-13T01:51:49.809Z,2
2014-07-13T01:52:08.028Z,2
2014-07-13T01:52:25.637Z,2
2014-07-13T01:52:43.233Z,2
2014-07-13T01:53:00.202Z,2
2014-07-13T01:53:17.811Z,2
2014-07-13T01:53:36.032Z,2
2014-07-13T01:53:53.641Z,2
2014-07-13T01:54:11.235Z,2
2014-07-13T01:54:28.844Z,2
2014-07-13T01:54:45.815Z,2
2014-07-13T01:55:04.049Z,2
2014-07-13T01:55:22.409Z,2
2014-07-13T01:55:40.004Z,2
2014-07-13T01:55:58.239Z,2
2014-07-13T01:56:15.833Z,2
2014-07-13T01:56:34.069Z,2
2014-07-13T01:56:51.663Z,2
2014-07-13T01:57:09.881Z,2
2014-07-13T01:57:26.850Z,2
2014-07-13T01:57:43.837Z,2
2014-07-13T01:58:02.055Z,2
2014-07-13T01:58:19.024Z,2
2014-07-13T01:58:37.260Z,1
2014-07-13T01:58:55.479Z,2
2014-07-13T01:59:13.714Z,2
2014-07-13T01:59:31.948Z,2
2014-07-13T01:59:48.919Z,2
2014-07-13T02:00:07.153Z,2
2014-07-13T02:00:25.372Z,2
2014-07-13T02:00:42.983Z,2
2014-07-13T02:01:01.202Z,2
2014-07-13T02:01:18.811Z,2
2014-07-13T02:01:35.782Z,2
2014-07-13T02:01:53.376Z,2
2014-07-13T02:02:11.610Z,2
2014-07-13T02:02:29.345Z,2
2014-07-13T02:02:47.564Z,3
2014-07-13T02:03:05.174Z,2
2014-07-13T02:03:23.392Z,2
2014-07-13T02:03:40.363Z,2
2014-07-13T02:03:58.598Z,2
2014-07-13T02:04:16.207Z,2
2014-07-13T02:04:34.428Z,2
2014-07-13T02:04:52.662Z,2
2014-07-13T02:05:10.256Z,2
2014-07-13T02:05:27.865Z,2
2014-07-13T02:05:46.086Z,2
2014-07-13T02:06:04.320Z,2
2014-07-13T02:06:22.555Z,2
2014-07-13T02:06:40.791Z,2
2014-07-13T02:06:58.385Z,2
2014-07-13T02:07:16.604Z,2
2014-07-13T02:07:34.215Z,3
2014-07-13T02:07:51.809Z,2
2014-07-13T02:08:09.402Z,2
2014-07-13T02:08:27.637Z,2
2014-07-13T02:08:45.858Z,2
2014-07-13T02:09:03.467Z,2
2014-07-13T02:09:19.811Z,2
2014-07-13T02:09:36.156Z,2
2014-07-13T02:09:53.750Z,3
2014-07-13T02:10:11.985Z,2
2014-07-13T02:10:29.578Z,2
2014-07-13T02:10:47.190Z,2
2014-07-13T02:11:04.783Z,1
2014-07-13T02:11:21.752Z,2
2014-07-13T02:11:39.989Z,2
2014-07-13T02:11:57.723Z,2
2014-07-13T02:12:14.692Z,3
2014-07-13T02:12:32.928Z,2
2014-07-13T02:12:51.147Z,1
2014-07-13T02:13:08.756Z,2
2014-07-13T02:13:26.975Z,2
2014-07-13T02:13:44.586Z,3
2014-07-13T02:14:02.321Z,2
2014-07-13T02:14:19.914Z,2
2014-07-13T02:14:37.510Z,2
2014-07-13T02:14:55.870Z,2
2014-07-13T02:15:12.854Z,2
2014-07-13T02:15:31.073Z,2
2014-07-13T02:15:48.683Z,2
2014-07-13T02:16:06.902Z,3
2014-07-13T02:16:25.136Z,2
2014-07-13T02:16:41.482Z,2
2014-07-13T02:16:57.841Z,2
2014-07-13T02:17:16.060Z,2
2014-07-13T02:17:33.657Z,2
2014-07-13T02:17:51.266Z,3
2014-07-13T02:18:09.485Z,3
2014-07-13T02:18:27.094Z,2
2014-07-13T02:18:44.690Z,3
2014-07-13T02:19:02.924Z,2
2014-07-13T02:19:20.518Z,3
2014-07-13T02:19:38.113Z,3
2014-07-13T02:19:55.722Z,3
2014-07-13T02:20:13.316Z,3
2014-07-13T02:20:30.925Z,3
2014-07-13T02:20:49.146Z,3
2014-07-13T02:21:06.740Z,3
2014-07-13T02:21:24.349Z,3
2014-07-13T02:21:42.711Z,3
2014-07-13T02:22:00.304Z,3
2014-07-13T02:22:18.539Z,3
2014-07-13T02:22:36.135Z,3
2014-07-13T02:22:54.369Z,4
2014-07-13T02:23:11.994Z,3
2014-07-13T02:23:30.213Z,3
2014-07-13T02:23:48.449Z,4
2014-07-13T02:24:06.683Z,3
2014-07-13T02:24:24.277Z,3
2014-07-13T02:24:41.873Z,3
2014-07-13T02:24:59.482Z,4
2014-07-13T02:25:17.076Z,4
2014-07-13T02:25:34.671Z,4
2014-07-13T02:25:52.905Z,4
2014-07-13T02:26:11.124Z,4
2014-07-13T02:26:28.733Z,4
2014-07-13T02:26:46.955Z,3
2014-07-13T02:27:04.564Z,4
2014-07-13T02:27:22.783Z,4
2014-07-13T02:27:40.379Z,4
2014-07-13T02:27:58.613Z,4
2014-07-13T02:28:16.848Z,4
2014-07-13T02:28:34.442Z,4
2014-07-13T02:28:52.677Z,5
2014-07-13T02:29:10.896Z,5
2014-07-13T02:29:29.130Z,5
2014-07-13T02:29:47.351Z,5
2014-07-13T02:30:05.585Z,5
2014-07-13T02:30:23.194Z,5
2014-07-13T02:30:40.166Z,5
2014-07-13T02:30:58.401Z,5
2014-07-13T02:31:16.619Z,5
2014-07-13T02:31:34.231Z,6
2014-07-13T02:31:51.199Z,6
2014-07-13T02:32:08.168Z,6
2014-07-13T02:32:25.903Z,6
2014-07-13T02:32:43.514Z,6
2014-07-13T02:33:01.108Z,7
2014-07-13T02:33:19.342Z,7
2014-07-13T02:33:36.937Z,7
2014-07-13T02:33:54.531Z,7
2014-07-13T02:34:12.890Z,7
2014-07-13T02:34:29.874Z,7
2014-07-13T02:34:48.095Z,8
2014-07-13T02:35:05.704Z,8
2014-07-13T02:35:23.923Z,8
2014-07-13T02:35:40.894Z,8
2014-07-13T02:35:57.878Z,8
2014-07-13T02:36:16.097Z,9
2014-07-13T02:36:34.317Z,9
2014-07-13T02:36:52.551Z,9
2014-07-13T02:37:10.161Z,10
2014-07-13T02:37:28.379Z,10
2014-07-13T02:37:46.742Z,10
2014-07-13T02:38:04.351Z,11
2014-07-13T02:38:21.335Z,11
2014-07-13T02:38:39.556Z,11
2014-07-13T02:38:57.791Z,11
2014-07-13T02:39:15.384Z,11
2014-07-13T02:39:33.619Z,12
2014-07-13T02:39:50.589Z,12
2014-07-13T02:40:08.824Z,13
2014-07-13T02:40:25.793Z,13
2014-07-13T02:40:44.029Z,13
2014-07-13T02:41:02.263Z,14
2014-07-13T02:41:19.857Z,14
2014-07-13T02:41:36.216Z,15
2014-07-13T02:41:54.437Z,15
2014-07-13T02:42:12.672Z,16
2014-07-13T02:42:30.906Z,16
2014-07-13T02:42:49.126Z,17
2014-07-13T02:43:07.485Z,17
2014-07-13T02:43:25.719Z,17
2014-07-13T02:43:43.315Z,18
2014-07-13T02:44:00.909Z,19
2014-07-13T02:44:19.143Z,19
2014-07-13T02:44:37.378Z,20
2014-07-13T02:44:55.615Z,21
2014-07-13T02:45:13.849Z,21
2014-07-13T02:45:32.068Z,22
2014-07-13T02:45:50.305Z,22
2014-07-13T02:46:08.539Z,23
2014-07-13T02:46:26.773Z,24
2014-07-13T02:46:44.367Z,24
2014-07-13T02:47:02.588Z,25
2014-07-13T02:47:18.947Z,26
2014-07-13T02:47:37.182Z,26
2014-07-13T02:47:55.402Z,27
2014-07-13T02:48:13.637Z,28
2014-07-13T02:48:31.871Z,29
2014-07-13T02:48:50.091Z,30
2014-07-13T02:49:07.075Z,30
2014-07-13T02:49:24.044Z,31
2014-07-13T02:49:42.263Z,32
2014-07-13T02:50:00.499Z,33
2014-07-13T02:50:18.718Z,34
2014-07-13T02:50:36.952Z,35
2014-07-13T02:50:54.548Z,36
2014-07-13T02:51:12.767Z,37
2014-07-13T02:51:30.517Z,38
2014-07-13T02:51:47.485Z,39
2014-07-13T02:52:05.722Z,40
2014-07-13T02:52:23.941Z,41
2014-07-13T02:52:41.550Z,42
2014-07-13T02:52:59.911Z,43
2014-07-13T02:53:17.505Z,44
2014-07-13T02:53:35.739Z,45
2014-07-13T02:53:53.335Z,46
2014-07-13T02:54:10.945Z,48
2014-07-13T02:54:27.913Z,49
2014-07-13T02:54:46.148Z,50
2014-07-13T02:55:03.743Z,52
2014-07-13T02:55:21.978Z,53
2014-07-13T02:55:39.587Z,54
2014-07-13T02:55:57.807Z,56
2014-07-13T02:56:16.041Z,57
2014-07-13T02:56:34.276Z,59
2014-07-13T02:56:52.513Z,61
2014-07-13T02:57:10.107Z,63
2014-07-13T02:57:27.716Z,65
2014-07-13T02:57:45.310Z,66
2014-07-13T02:58:02.905Z,68
2014-07-13T02:58:20.639Z,70
2014-07-13T02:58:38.873Z,72
2014-07-13T02:58:57.111Z,74
2014-07-13T02:59:15.345Z,76
2014-07-13T02:59:32.939Z,78
2014-07-13T02:59:50.535Z,80
2014-07-13T03:00:08.769Z,82
2014-07-13T03:00:27.003Z,85
2014-07-13T03:00:43.972Z,86
2014-07-13T03:01:01.567Z,88
2014-07-13T03:01:18.536Z,90
2014-07-13T03:01:36.770Z,92
2014-07-13T03:01:55.006Z,94
2014-07-13T03:02:12.616Z,96
2014-07-13T03:02:30.210Z,98
2014-07-13T03:02:47.819Z,100
2014-07-13T03:03:06.056Z,102
2014-07-13T03:03:23.650Z,104
2014-07-13T03:03:41.884Z,106
2014-07-13T03:03:59.495Z,109
2014-07-13T03:04:17.729Z,110
2014-07-13T03:04:35.964Z,113
2014-07-13T03:04:54.201Z,114
2014-07-13T03:05:11.185Z,116
2014-07-13T03:05:29.404Z,119
2014-07-13T03:05:47.638Z,120
2014-07-13T03:06:04.624Z,122
2014-07-13T03:06:21.593Z,124
2014-07-13T03:06:39.827Z,126
2014-07-13T03:06:58.061Z,127
2014-07-13T03:07:16.298Z,130
2014-07-13T03:07:34.532Z,131
2014-07-13T03:07:52.766Z,133
2014-07-13T03:08:09.754Z,135
2014-07-13T03:08:27.988Z,137
2014-07-13T03:08:45.598Z,139
2014-07-13T03:09:01.941Z,140
2014-07-13T03:09:20.178Z,142
2014-07-13T03:09:38.412Z,144
2014-07-13T03:09:56.021Z,146
2014-07-13T03:10:13.631Z,147
2014-07-13T03:10:31.226Z,149
2014-07-13T03:10:48.835Z,151
2014-07-13T03:11:07.069Z,153
2014-07-13T03:11:25.322Z,155
2014-07-13T03:11:43.541Z,157
2014-07-13T03:12:01.150Z,159
2014-07-13T03:12:18.119Z,161
2014-07-13T03:12:35.731Z,162
2014-07-13T03:12:53.965Z,164
2014-07-13T03:13:10.934Z,166
2014-07-13T03:13:29.311Z,168
2014-07-13T03:13:46.904Z,170
2014-07-13T03:14:05.139Z,172
2014-07-13T03:14:22.123Z,173
2014-07-13T03:14:39.094Z,175
2014-07-13T03:14:57.328Z,177
2014-07-13T03:15:14.938Z,178
2014-07-13T03:15:33.173Z,180
2014-07-13T03:15:50.157Z,181
2014-07-13T03:16:07.751Z,183
2014-07-13T03:16:25.986Z,185
2014-07-13T03:16:43.598Z,186
2014-07-13T03:17:00.567Z,188
2014-07-13T03:17:18.801Z,189
2014-07-13T03:17:37.037Z,191
2014-07-13T03:17:54.647Z,193
2014-07-13T03:18:12.241Z,194
2014-07-13T03:18:29.225Z,196
2014-07-13T03:18:46.835Z,198
2014-07-13T03:19:04.445Z,200
2014-07-13T03:19:22.038Z,201
2014-07-13T03:19:39.026Z,203
2014-07-13T03:19:56.620Z,204
2014-07-13T03:20:14.229Z,206
2014-07-13T03:20:30.588Z,207
2014-07-13T03:20:48.809Z,209
2014-07-13T03:21:07.043Z,210
2014-07-13T03:21:24.653Z,212
2014-07-13T03:21:41.623Z,213
2014-07-13T03:21:59.998Z,215
2014-07-13T03:22:17.591Z,216
2014-07-13T03:22:35.828Z,218
2014-07-13T03:22:53.437Z,218
2014-07-13T03:23:10.421Z,221
2014-07-13T03:23:28.656Z,223
2014-07-13T03:23:46.252Z,224
2014-07-13T03:24:03.861Z,226
2014-07-13T03:24:22.095Z,227
2014-07-13T03:24:40.332Z,229
2014-07-13T03:24:57.941Z,230
2014-07-13T03:25:15.535Z,232
2014-07-13T03:25:33.771Z,234
2014-07-13T03:25:50.115Z,235
2014-07-13T03:26:08.349Z,236
2014-07-13T03:26:25.334Z,237
2014-07-13T03:26:43.570Z,239
2014-07-13T03:27:01.804Z,240
2014-07-13T03:27:20.039Z,242
2014-07-13T03:27:37.010Z,243
2014-07-13T03:27:54.619Z,245
2014-07-13T03:28:12.853Z,246
2014-07-13T03:28:31.088Z,247
2014-07-13T03:28:48.074Z,249
2014-07-13T03:29:05.683Z,250
2014-07-13T03:29:24.043Z,252
2014-07-13T03:29:41.654Z,253
2014-07-13T03:29:58.639Z,254
2014-07-13T03:30:16.248Z,256
2014-07-13T03:30:34.484Z,257
2014-07-13T03:30:52.719Z,258
2014-07-13T03:31:10.953Z,259
2014-07-13T03:31:27.937Z,261
2014-07-13T03:31:46.173Z,262
2014-07-13T03:32:03.767Z,263
2014-07-13T03:32:20.751Z,265
2014-07-13T03:32:38.362Z,266
2014-07-13T03:32:55.956Z,267
2014-07-13T03:33:14.190Z,268
2014-07-13T03:33:32.425Z,270
2014-07-13T03:33:50.661Z,271
2014-07-13T03:34:08.271Z,272
2014-07-13T03:34:25.880Z,274
2014-07-13T03:34:44.116Z,275
2014-07-13T03:35:02.476Z,276
2014-07-13T03:35:20.710Z,277
2014-07-13T03:35:38.946Z,279
2014-07-13T03:35:55.306Z,280
2014-07-13T03:36:13.540Z,281
2014-07-13T03:36:31.134Z,282
2014-07-13T03:36:48.745Z,283
2014-07-13T03:37:06.355Z,284
2014-07-13T03:37:23.964Z,286
2014-07-13T03:37:42.185Z,287
2014-07-13T03:38:00.419Z,288
2014-07-13T03:38:17.404Z,289
2014-07-13T03:38:35.015Z,290
2014-07-13T03:38:52.609Z,292
2014-07-13T03:39:09.593Z,293
2014-07-13T03:39:27.202Z,295
2014-07-13T03:39:45.439Z,296
2014-07-13T03:40:03.673Z,298
2014-07-13T03:40:21.908Z,300
2014-07-13T03:40:39.519Z,301
2014-07-13T03:40:57.113Z,302
2014-07-13T03:41:14.722Z,304
2014-07-13T03:41:32.956Z,305
2014-07-13T03:41:49.302Z,306
2014-07-13T03:42:06.912Z,307
2014-07-13T03:42:24.521Z,308
2014-07-13T03:42:42.756Z,309
2014-07-13T03:43:00.991Z,310
2014-07-13T03:43:18.584Z,311
2014-07-13T03:43:36.196Z,312
2014-07-13T03:43:53.790Z,313
2014-07-13T03:44:11.415Z,314
2014-07-13T03:44:29.649Z,315
2014-07-13T03:44:47.886Z,316
2014-07-13T03:45:06.105Z,317
2014-07-13T03:45:23.089Z,318
2014-07-13T03:45:41.326Z,319
2014-07-13T03:45:58.935Z,320
2014-07-13T03:46:16.529Z,320
2014-07-13T03:46:34.764Z,321
2014-07-13T03:46:52.999Z,322
2014-07-13T03:47:11.233Z,323
2014-07-13T03:47:28.842Z,324
2014-07-13T03:47:46.579Z,325
2014-07-13T03:48:04.813Z,326
2014-07-13T03:48:23.048Z,327
2014-07-13T03:48:40.659Z,328
2014-07-13T03:48:58.253Z,329
2014-07-13T03:49:16.487Z,330
2014-07-13T03:49:33.456Z,330
2014-07-13T03:49:50.427Z,331
2014-07-13T03:50:08.036Z,332
2014-07-13T03:50:25.645Z,333
2014-07-13T03:50:42.632Z,334
2014-07-13T03:51:00.225Z,335
2014-07-13T03:51:17.210Z,336
2014-07-13T03:51:35.444Z,337
2014-07-13T03:51:53.056Z,337
2014-07-13T03:52:11.290Z,339
2014-07-13T03:52:29.509Z,339
2014-07-13T03:52:46.620Z,340
2014-07-13T03:53:04.854Z,341
2014-07-13T03:53:23.089Z,342
2014-07-13T03:53:41.325Z,343
2014-07-13T03:53:58.935Z,344
2014-07-13T03:54:17.169Z,345
2014-07-13T03:54:34.778Z,346
2014-07-13T03:54:52.999Z,347
2014-07-13T03:55:09.983Z,348
2014-07-13T03:55:27.593Z,349
2014-07-13T03:55:45.213Z,350
2014-07-13T03:56:03.448Z,351
2014-07-13T03:56:21.041Z,352
2014-07-13T03:56:38.651Z,353
2014-07-13T03:56:56.927Z,354
2014-07-13T03:57:15.161Z,355
2014-07-13T03:57:33.380Z,356
2014-07-13T03:57:51.656Z,357
2014-07-13T03:58:07.390Z,358
2014-07-13T03:58:25.624Z,359
2014-07-13T03:58:43.885Z,360
2014-07-13T03:59:02.119Z,360
2014-07-13T03:59:19.729Z,362
2014-07-13T03:59:37.963Z,362
2014-07-13T03:59:56.223Z,363
2014-07-13T04:00:13.832Z,364
2014-07-13T04:00:31.442Z,365
2014-07-13T04:00:49.695Z,366
2014-07-13T04:01:07.445Z,367
2014-07-13T04:01:25.055Z,368
2014-07-13T04:01:42.666Z,369
2014-07-13T04:02:00.275Z,370
2014-07-13T04:02:17.884Z,371
2014-07-13T04:02:35.494Z,371
2014-07-13T04:02:53.744Z,373
2014-07-13T04:03:11.963Z,373
2014-07-13T04:03:30.197Z,374
2014-07-13T04:03:47.823Z,375
2014-07-13T04:04:06.057Z,376
2014-07-13T04:04:23.666Z,377
2014-07-13T04:04:40.651Z,378
2014-07-13T04:04:58.260Z,379
2014-07-13T04:05:15.870Z,380
2014-07-13T04:05:32.839Z,381
2014-07-13T04:05:50.462Z,382
2014-07-13T04:06:08.696Z,383
2014-07-13T04:06:25.665Z,384
2014-07-13T04:06:43.281Z,384
2014-07-13T04:06:59.641Z,385
2014-07-13T04:07:17.875Z,386
2014-07-13T04:07:35.485Z,386
2014-07-13T04:07:52.459Z,387
2014-07-13T04:08:10.069Z,388
2014-07-13T04:08:28.303Z,389
2014-07-13T04:08:46.544Z,390
2014-07-13T04:09:04.779Z,390
2014-07-13T04:09:23.013Z,391
2014-07-13T04:09:40.614Z,392
2014-07-13T04:09:58.223Z,393
2014-07-13T04:10:16.598Z,393
2014-07-13T04:10:34.817Z,394
2014-07-13T04:10:53.057Z,395
2014-07-13T04:11:10.042Z,396
2014-07-13T04:11:27.651Z,396
2014-07-13T04:11:45.265Z,398
2014-07-13T04:12:02.858Z,398
2014-07-13T04:12:21.093Z,399
2014-07-13T04:12:39.468Z,400
2014-07-13T04:12:57.206Z,400
2014-07-13T04:13:15.440Z,401
2014-07-13T04:13:33.815Z,402
2014-07-13T04:13:51.413Z,402
2014-07-13T04:14:09.648Z,403
2014-07-13T04:14:27.882Z,404
2014-07-13T04:14:46.120Z,405
2014-07-13T04:15:03.730Z,406
2014-07-13T04:15:21.964Z,406
2014-07-13T04:15:40.187Z,407
2014-07-13T04:15:57.796Z,408
2014-07-13T04:16:15.406Z,409
2014-07-13T04:16:33.015Z,409
2014-07-13T04:16:51.251Z,410
2014-07-13T04:17:09.486Z,411